sensor_id;sensor_type;location;lat;lon;timestamp;P1;durP1;ratioP1;P2;durP2;ratioP2
44558;SDS011;30270;40.238;18.256;2022-12-11T00:00:52;11.00;;;4.57;;
44558;SDS011;30270;40.238;18.256;2022-12-11T00:03:19;8.98;;;4.68;;
44558;SDS011;30270;40.238;18.256;2022-12-11T00:05:47;18.23;;;4.88;;
44558;SDS011;30270;40.238;18.256;2022-12-11T00:08:14;12.38;;;3.65;;
44558;SDS011;30270;40.238;18.256;2022-12-11T00:10:47;5.88;;;3.55;;
44558;SDS011;30270;40.238;18.256;2022-12-11T00:13:15;13.98;;;5.28;;
44558;SDS011;30270;40.238;18.256;2022-12-11T00:15:43;13.30;;;3.55;;
44558;SDS011;30270;40.238;18.256;2022-12-11T00:18:13;15.48;;;4.60;;
44558;SDS011;30270;40.238;18.256;2022-12-11T00:20:41;15.45;;;4.28;;
44558;SDS011;30270;40.238;18.256;2022-12-11T00:23:08;12.23;;;4.63;;
44558;SDS011;30270;40.238;18.256;2022-12-11T00:25:43;19.08;;;5.50;;
44558;SDS011;30270;40.238;18.256;2022-12-11T00:28:13;12.10;;;4.95;;
44558;SDS011;30270;40.238;18.256;2022-12-11T00:30:43;11.25;;;3.40;;
44558;SDS011;30270;40.238;18.256;2022-12-11T00:33:12;16.05;;;5.47;;
44558;SDS011;30270;40.238;18.256;2022-12-11T00:35:41;11.52;;;4.07;;
44558;SDS011;30270;40.238;18.256;2022-12-11T00:38:14;22.77;;;5.70;;
44558;SDS011;30270;40.238;18.256;2022-12-11T00:40:43;14.73;;;4.32;;
44558;SDS011;30270;40.238;18.256;2022-12-11T00:43:11;11.75;;;3.90;;
44558;SDS011;30270;40.238;18.256;2022-12-11T00:45:43;15.20;;;4.75;;
44558;SDS011;30270;40.238;18.256;2022-12-11T00:48:12;17.17;;;3.55;;
44558;SDS011;30270;40.238;18.256;2022-12-11T00:50:40;15.68;;;4.95;;
44558;SDS011;30270;40.238;18.256;2022-12-11T00:53:08;12.93;;;3.92;;
44558;SDS011;30270;40.238;18.256;2022-12-11T00:55:36;11.23;;;3.95;;
44558;SDS011;30270;40.238;18.256;2022-12-11T00:58:05;19.75;;;5.20;;
44558;SDS011;30270;40.238;18.256;2022-12-11T01:00:34;14.23;;;3.90;;
44558;SDS011;30270;40.238;18.256;2022-12-11T01:03:01;13.23;;;4.40;;
44558;SDS011;30270;40.238;18.256;2022-12-11T01:05:30;11.90;;;4.57;;
44558;SDS011;30270;40.238;18.256;2022-12-11T01:07:58;9.52;;;3.95;;
44558;SDS011;30270;40.238;18.256;2022-12-11T01:10:26;13.18;;;4.55;;
44558;SDS011;30270;40.238;18.256;2022-12-11T01:12:55;16.50;;;4.93;;
44558;SDS011;30270;40.238;18.256;2022-12-11T01:15:25;15.43;;;4.65;;
44558;SDS011;30270;40.238;18.256;2022-12-11T01:17:55;9.55;;;3.45;;
44558;SDS011;30270;40.238;18.256;2022-12-11T01:20:24;6.55;;;3.22;;
44558;SDS011;30270;40.238;18.256;2022-12-11T01:22:54;12.00;;;4.78;;
44558;SDS011;30270;40.238;18.256;2022-12-11T01:25:24;11.25;;;4.38;;
44558;SDS011;30270;40.238;18.256;2022-12-11T01:27:52;18.35;;;4.97;;
44558;SDS011;30270;40.238;18.256;2022-12-11T01:30:22;13.90;;;5.82;;
44558;SDS011;30270;40.238;18.256;2022-12-11T01:32:51;17.40;;;4.43;;
44558;SDS011;30270;40.238;18.256;2022-12-11T01:35:18;20.85;;;5.32;;
44558;SDS011;30270;40.238;18.256;2022-12-11T01:37:46;12.75;;;3.78;;
44558;SDS011;30270;40.238;18.256;2022-12-11T01:40:16;11.65;;;3.30;;
44558;SDS011;30270;40.238;18.256;2022-12-11T01:42:45;11.35;;;4.43;;
44558;SDS011;30270;40.238;18.256;2022-12-11T01:48:03;12.38;;;4.38;;
44558;SDS011;30270;40.238;18.256;2022-12-11T01:50:38;10.43;;;3.88;;
44558;SDS011;30270;40.238;18.256;2022-12-11T01:53:11;16.95;;;3.90;;
44558;SDS011;30270;40.238;18.256;2022-12-11T01:55:42;11.20;;;4.88;;
44558;SDS011;30270;40.238;18.256;2022-12-11T01:58:12;15.98;;;4.25;;
44558;SDS011;30270;40.238;18.256;2022-12-11T02:00:40;10.75;;;4.20;;
44558;SDS011;30270;40.238;18.256;2022-12-11T02:03:08;14.00;;;4.78;;
44558;SDS011;30270;40.238;18.256;2022-12-11T02:05:35;14.18;;;6.03;;
44558;SDS011;30270;40.238;18.256;2022-12-11T02:08:03;10.13;;;4.20;;
44558;SDS011;30270;40.238;18.256;2022-12-11T02:10:58;9.95;;;4.03;;
44558;SDS011;30270;40.238;18.256;2022-12-11T02:13:47;7.07;;;3.40;;
44558;SDS011;30270;40.238;18.256;2022-12-11T02:16:58;13.65;;;5.38;;
44558;SDS011;30270;40.238;18.256;2022-12-11T02:19:47;19.50;;;4.88;;
44558;SDS011;30270;40.238;18.256;2022-12-11T02:22:43;15.38;;;4.22;;
44558;SDS011;30270;40.238;18.256;2022-12-11T02:28:11;14.63;;;4.28;;
44558;SDS011;30270;40.238;18.256;2022-12-11T02:30:56;17.00;;;4.00;;
44558;SDS011;30270;40.238;18.256;2022-12-11T02:33:37;12.25;;;4.47;;
44558;SDS011;30270;40.238;18.256;2022-12-11T02:36:11;17.08;;;4.22;;
44558;SDS011;30270;40.238;18.256;2022-12-11T02:38:42;13.70;;;4.13;;
44558;SDS011;30270;40.238;18.256;2022-12-11T02:41:16;11.25;;;3.45;;
44558;SDS011;30270;40.238;18.256;2022-12-11T02:43:46;12.70;;;4.28;;
44558;SDS011;30270;40.238;18.256;2022-12-11T02:46:15;9.85;;;4.03;;
44558;SDS011;30270;40.238;18.256;2022-12-11T02:48:45;14.93;;;4.10;;
44558;SDS011;30270;40.238;18.256;2022-12-11T02:51:16;14.48;;;6.35;;
44558;SDS011;30270;40.238;18.256;2022-12-11T02:53:47;8.02;;;3.05;;
44558;SDS011;30270;40.238;18.256;2022-12-11T02:56:19;12.20;;;3.55;;
44558;SDS011;30270;40.238;18.256;2022-12-11T02:58:57;9.27;;;5.05;;
44558;SDS011;30270;40.238;18.256;2022-12-11T03:01:28;7.97;;;3.40;;
44558;SDS011;30270;40.238;18.256;2022-12-11T03:03:56;16.92;;;4.65;;
44558;SDS011;30270;40.238;18.256;2022-12-11T03:06:26;10.18;;;3.10;;
44558;SDS011;30270;40.238;18.256;2022-12-11T03:09:02;7.18;;;3.33;;
44558;SDS011;30270;40.238;18.256;2022-12-11T03:11:30;7.70;;;2.90;;
44558;SDS011;30270;40.238;18.256;2022-12-11T03:13:58;11.25;;;3.97;;
44558;SDS011;30270;40.238;18.256;2022-12-11T03:16:38;16.63;;;3.83;;
44558;SDS011;30270;40.238;18.256;2022-12-11T03:19:21;8.65;;;3.92;;
44558;SDS011;30270;40.238;18.256;2022-12-11T03:22:00;7.88;;;4.03;;
44558;SDS011;30270;40.238;18.256;2022-12-11T03:27:16;11.60;;;3.85;;
44558;SDS011;30270;40.238;18.256;2022-12-11T03:29:56;16.73;;;4.47;;
44558;SDS011;30270;40.238;18.256;2022-12-11T03:32:42;11.70;;;4.60;;
44558;SDS011;30270;40.238;18.256;2022-12-11T03:35:25;12.40;;;3.72;;
44558;SDS011;30270;40.238;18.256;2022-12-11T03:38:09;11.50;;;3.83;;
44558;SDS011;30270;40.238;18.256;2022-12-11T03:40:42;14.80;;;3.70;;
44558;SDS011;30270;40.238;18.256;2022-12-11T03:43:15;10.95;;;3.05;;
44558;SDS011;30270;40.238;18.256;2022-12-11T03:45:42;12.55;;;3.38;;
44558;SDS011;30270;40.238;18.256;2022-12-11T03:48:12;10.27;;;4.20;;
44558;SDS011;30270;40.238;18.256;2022-12-11T03:50:43;17.15;;;3.78;;
44558;SDS011;30270;40.238;18.256;2022-12-11T03:53:12;20.13;;;5.28;;
44558;SDS011;30270;40.238;18.256;2022-12-11T03:55:41;7.85;;;3.45;;
44558;SDS011;30270;40.238;18.256;2022-12-11T03:58:09;9.63;;;2.70;;
44558;SDS011;30270;40.238;18.256;2022-12-11T04:00:37;11.90;;;3.40;;
44558;SDS011;30270;40.238;18.256;2022-12-11T04:03:04;8.35;;;2.83;;
44558;SDS011;30270;40.238;18.256;2022-12-11T04:05:40;12.18;;;3.35;;
44558;SDS011;30270;40.238;18.256;2022-12-11T04:08:09;9.15;;;3.65;;
44558;SDS011;30270;40.238;18.256;2022-12-11T04:10:38;8.95;;;3.20;;
44558;SDS011;30270;40.238;18.256;2022-12-11T04:13:06;7.45;;;2.95;;
44558;SDS011;30270;40.238;18.256;2022-12-11T04:15:35;8.63;;;2.75;;
44558;SDS011;30270;40.238;18.256;2022-12-11T04:18:03;8.75;;;3.72;;
44558;SDS011;30270;40.238;18.256;2022-12-11T04:20:54;7.57;;;3.55;;
44558;SDS011;30270;40.238;18.256;2022-12-11T04:23:40;3.80;;;2.47;;
44558;SDS011;30270;40.238;18.256;2022-12-11T04:26:26;15.53;;;4.40;;
44558;SDS011;30270;40.238;18.256;2022-12-11T04:28:53;11.90;;;2.95;;
44558;SDS011;30270;40.238;18.256;2022-12-11T04:31:21;8.45;;;4.00;;
44558;SDS011;30270;40.238;18.256;2022-12-11T04:33:48;7.18;;;2.42;;
44558;SDS011;30270;40.238;18.256;2022-12-11T04:36:16;6.35;;;3.47;;
44558;SDS011;30270;40.238;18.256;2022-12-11T04:38:44;7.18;;;2.70;;
44558;SDS011;30270;40.238;18.256;2022-12-11T04:41:12;11.05;;;2.50;;
44558;SDS011;30270;40.238;18.256;2022-12-11T04:43:41;11.18;;;2.95;;
44558;SDS011;30270;40.238;18.256;2022-12-11T04:46:16;15.80;;;3.75;;
44558;SDS011;30270;40.238;18.256;2022-12-11T04:48:45;8.20;;;2.90;;
44558;SDS011;30270;40.238;18.256;2022-12-11T04:51:14;6.05;;;2.10;;
44558;SDS011;30270;40.238;18.256;2022-12-11T04:53:42;12.07;;;3.08;;
44558;SDS011;30270;40.238;18.256;2022-12-11T04:56:11;9.10;;;3.40;;
44558;SDS011;30270;40.238;18.256;2022-12-11T04:58:40;8.27;;;2.95;;
44558;SDS011;30270;40.238;18.256;2022-12-11T05:01:15;8.85;;;3.85;;
44558;SDS011;30270;40.238;18.256;2022-12-11T05:03:45;10.23;;;3.30;;
44558;SDS011;30270;40.238;18.256;2022-12-11T05:06:12;7.97;;;3.10;;
44558;SDS011;30270;40.238;18.256;2022-12-11T05:08:41;8.38;;;2.53;;
44558;SDS011;30270;40.238;18.256;2022-12-11T05:11:11;8.90;;;2.38;;
44558;SDS011;30270;40.238;18.256;2022-12-11T05:13:39;9.50;;;2.35;;
44558;SDS011;30270;40.238;18.256;2022-12-11T05:16:09;9.43;;;3.55;;
44558;SDS011;30270;40.238;18.256;2022-12-11T05:18:38;6.25;;;2.95;;
44558;SDS011;30270;40.238;18.256;2022-12-11T05:21:07;7.55;;;3.45;;
44558;SDS011;30270;40.238;18.256;2022-12-11T05:23:37;4.40;;;1.60;;
44558;SDS011;30270;40.238;18.256;2022-12-11T05:26:06;7.40;;;2.88;;
44558;SDS011;30270;40.238;18.256;2022-12-11T05:28:35;7.78;;;2.60;;
44558;SDS011;30270;40.238;18.256;2022-12-11T05:31:05;4.13;;;1.67;;
44558;SDS011;30270;40.238;18.256;2022-12-11T05:33:37;13.45;;;2.65;;
44558;SDS011;30270;40.238;18.256;2022-12-11T05:36:05;4.20;;;1.33;;
44558;SDS011;30270;40.238;18.256;2022-12-11T05:38:33;6.00;;;3.33;;
44558;SDS011;30270;40.238;18.256;2022-12-11T05:41:02;6.65;;;1.95;;
44558;SDS011;30270;40.238;18.256;2022-12-11T05:43:32;3.90;;;1.48;;
44558;SDS011;30270;40.238;18.256;2022-12-11T05:46:05;3.15;;;1.85;;
44558;SDS011;30270;40.238;18.256;2022-12-11T05:48:35;11.20;;;2.55;;
44558;SDS011;30270;40.238;18.256;2022-12-11T05:51:03;7.45;;;1.77;;
44558;SDS011;30270;40.238;18.256;2022-12-11T05:53:31;8.63;;;1.80;;
44558;SDS011;30270;40.238;18.256;2022-12-11T05:56:00;2.05;;;1.40;;
44558;SDS011;30270;40.238;18.256;2022-12-11T05:58:32;5.25;;;1.88;;
44558;SDS011;30270;40.238;18.256;2022-12-11T06:01:01;5.15;;;1.60;;
44558;SDS011;30270;40.238;18.256;2022-12-11T06:03:32;10.00;;;1.60;;
44558;SDS011;30270;40.238;18.256;2022-12-11T06:06:00;5.80;;;1.80;;
44558;SDS011;30270;40.238;18.256;2022-12-11T06:08:29;7.95;;;1.48;;
44558;SDS011;30270;40.238;18.256;2022-12-11T06:10:56;12.38;;;2.35;;
44558;SDS011;30270;40.238;18.256;2022-12-11T06:13:24;4.68;;;1.63;;
44558;SDS011;30270;40.238;18.256;2022-12-11T06:15:52;2.90;;;1.70;;
44558;SDS011;30270;40.238;18.256;2022-12-11T06:18:20;5.13;;;2.47;;
44558;SDS011;30270;40.238;18.256;2022-12-11T06:20:47;3.83;;;1.50;;
44558;SDS011;30270;40.238;18.256;2022-12-11T06:23:15;4.60;;;1.42;;
44558;SDS011;30270;40.238;18.256;2022-12-11T06:25:42;5.70;;;1.98;;
44558;SDS011;30270;40.238;18.256;2022-12-11T06:28:10;7.35;;;2.05;;
44558;SDS011;30270;40.238;18.256;2022-12-11T06:30:37;3.78;;;1.60;;
44558;SDS011;30270;40.238;18.256;2022-12-11T06:33:05;1.45;;;0.98;;
44558;SDS011;30270;40.238;18.256;2022-12-11T06:35:33;2.60;;;0.80;;
44558;SDS011;30270;40.238;18.256;2022-12-11T06:38:04;1.52;;;1.10;;
44558;SDS011;30270;40.238;18.256;2022-12-11T06:40:31;2.13;;;1.15;;
44558;SDS011;30270;40.238;18.256;2022-12-11T06:42:59;1.88;;;1.20;;
44558;SDS011;30270;40.238;18.256;2022-12-11T06:45:27;2.05;;;0.90;;
44558;SDS011;30270;40.238;18.256;2022-12-11T06:47:55;1.45;;;0.90;;
44558;SDS011;30270;40.238;18.256;2022-12-11T06:50:22;3.95;;;1.52;;
44558;SDS011;30270;40.238;18.256;2022-12-11T06:52:50;2.10;;;1.25;;
44558;SDS011;30270;40.238;18.256;2022-12-11T06:55:17;6.05;;;1.30;;
44558;SDS011;30270;40.238;18.256;2022-12-11T06:57:45;2.65;;;0.98;;
44558;SDS011;30270;40.238;18.256;2022-12-11T07:00:12;4.50;;;2.22;;
44558;SDS011;30270;40.238;18.256;2022-12-11T07:02:40;4.95;;;2.13;;
44558;SDS011;30270;40.238;18.256;2022-12-11T07:05:08;6.85;;;4.30;;
44558;SDS011;30270;40.238;18.256;2022-12-11T07:07:36;5.28;;;3.58;;
44558;SDS011;30270;40.238;18.256;2022-12-11T07:10:03;5.57;;;3.17;;
44558;SDS011;30270;40.238;18.256;2022-12-11T07:12:33;5.15;;;2.05;;
44558;SDS011;30270;40.238;18.256;2022-12-11T07:15:02;3.47;;;1.33;;
44558;SDS011;30270;40.238;18.256;2022-12-11T07:17:30;3.50;;;2.03;;
44558;SDS011;30270;40.238;18.256;2022-12-11T07:19:58;2.92;;;1.92;;
44558;SDS011;30270;40.238;18.256;2022-12-11T07:22:25;3.22;;;1.73;;
44558;SDS011;30270;40.238;18.256;2022-12-11T07:24:54;3.65;;;1.70;;
44558;SDS011;30270;40.238;18.256;2022-12-11T07:27:22;5.25;;;3.30;;
44558;SDS011;30270;40.238;18.256;2022-12-11T07:29:50;15.60;;;9.95;;
44558;SDS011;30270;40.238;18.256;2022-12-11T07:32:17;11.43;;;6.95;;
44558;SDS011;30270;40.238;18.256;2022-12-11T07:34:46;22.55;;;11.05;;
44558;SDS011;30270;40.238;18.256;2022-12-11T07:37:17;7.38;;;4.40;;
44558;SDS011;30270;40.238;18.256;2022-12-11T07:39:45;4.30;;;2.20;;
44558;SDS011;30270;40.238;18.256;2022-12-11T07:42:14;10.10;;;6.10;;
44558;SDS011;30270;40.238;18.256;2022-12-11T07:44:42;14.73;;;7.80;;
44558;SDS011;30270;40.238;18.256;2022-12-11T07:47:09;7.25;;;3.95;;
44558;SDS011;30270;40.238;18.256;2022-12-11T07:49:37;3.88;;;2.78;;
44558;SDS011;30270;40.238;18.256;2022-12-11T07:52:05;3.80;;;2.30;;
44558;SDS011;30270;40.238;18.256;2022-12-11T07:54:32;4.10;;;3.63;;
44558;SDS011;30270;40.238;18.256;2022-12-11T07:57:00;3.78;;;3.00;;
44558;SDS011;30270;40.238;18.256;2022-12-11T07:59:28;5.32;;;3.20;;
44558;SDS011;30270;40.238;18.256;2022-12-11T08:01:55;3.97;;;2.35;;
44558;SDS011;30270;40.238;18.256;2022-12-11T08:04:23;2.08;;;1.60;;
44558;SDS011;30270;40.238;18.256;2022-12-11T08:06:50;6.03;;;2.30;;
44558;SDS011;30270;40.238;18.256;2022-12-11T08:09:18;4.65;;;2.58;;
44558;SDS011;30270;40.238;18.256;2022-12-11T08:11:48;4.57;;;2.13;;
44558;SDS011;30270;40.238;18.256;2022-12-11T08:14:17;3.83;;;2.10;;
44558;SDS011;30270;40.238;18.256;2022-12-11T08:16:45;2.63;;;1.70;;
44558;SDS011;30270;40.238;18.256;2022-12-11T08:19:13;2.65;;;1.48;;
44558;SDS011;30270;40.238;18.256;2022-12-11T08:21:41;2.70;;;1.80;;
44558;SDS011;30270;40.238;18.256;2022-12-11T08:24:09;3.63;;;1.60;;
44558;SDS011;30270;40.238;18.256;2022-12-11T08:26:36;2.60;;;1.70;;
44558;SDS011;30270;40.238;18.256;2022-12-11T08:29:05;2.17;;;1.65;;
44558;SDS011;30270;40.238;18.256;2022-12-11T08:31:32;3.25;;;1.73;;
44558;SDS011;30270;40.238;18.256;2022-12-11T08:34:00;3.83;;;2.50;;
44558;SDS011;30270;40.238;18.256;2022-12-11T08:36:28;3.17;;;2.17;;
44558;SDS011;30270;40.238;18.256;2022-12-11T08:38:55;3.20;;;2.00;;
44558;SDS011;30270;40.238;18.256;2022-12-11T08:41:24;4.93;;;2.88;;
44558;SDS011;30270;40.238;18.256;2022-12-11T08:43:54;7.38;;;2.72;;
44558;SDS011;30270;40.238;18.256;2022-12-11T08:46:24;5.80;;;2.83;;
44558;SDS011;30270;40.238;18.256;2022-12-11T08:48:54;4.35;;;2.67;;
44558;SDS011;30270;40.238;18.256;2022-12-11T08:51:23;4.10;;;2.13;;
44558;SDS011;30270;40.238;18.256;2022-12-11T08:53:55;2.78;;;1.90;;
44558;SDS011;30270;40.238;18.256;2022-12-11T08:56:25;3.83;;;1.80;;
44558;SDS011;30270;40.238;18.256;2022-12-11T08:58:53;3.55;;;1.65;;
44558;SDS011;30270;40.238;18.256;2022-12-11T09:01:22;5.10;;;2.45;;
44558;SDS011;30270;40.238;18.256;2022-12-11T09:03:51;4.22;;;1.77;;
44558;SDS011;30270;40.238;18.256;2022-12-11T09:06:21;4.05;;;1.40;;
44558;SDS011;30270;40.238;18.256;2022-12-11T09:08:49;4.15;;;1.95;;
44558;SDS011;30270;40.238;18.256;2022-12-11T09:11:20;3.33;;;1.40;;
44558;SDS011;30270;40.238;18.256;2022-12-11T09:13:50;3.28;;;1.38;;
44558;SDS011;30270;40.238;18.256;2022-12-11T09:16:19;3.95;;;1.90;;
44558;SDS011;30270;40.238;18.256;2022-12-11T09:18:48;6.07;;;1.85;;
44558;SDS011;30270;40.238;18.256;2022-12-11T09:21:19;2.60;;;1.65;;
44558;SDS011;30270;40.238;18.256;2022-12-11T09:23:51;4.05;;;2.08;;
44558;SDS011;30270;40.238;18.256;2022-12-11T09:26:23;3.67;;;1.60;;
44558;SDS011;30270;40.238;18.256;2022-12-11T09:28:52;4.03;;;2.28;;
44558;SDS011;30270;40.238;18.256;2022-12-11T09:31:30;4.03;;;2.15;;
44558;SDS011;30270;40.238;18.256;2022-12-11T09:34:00;3.10;;;2.03;;
44558;SDS011;30270;40.238;18.256;2022-12-11T09:36:33;3.15;;;1.90;;
44558;SDS011;30270;40.238;18.256;2022-12-11T09:39:02;3.20;;;1.83;;
44558;SDS011;30270;40.238;18.256;2022-12-11T09:41:39;3.35;;;1.83;;
44558;SDS011;30270;40.238;18.256;2022-12-11T09:44:19;5.25;;;2.17;;
44558;SDS011;30270;40.238;18.256;2022-12-11T09:46:57;2.17;;;1.50;;
44558;SDS011;30270;40.238;18.256;2022-12-11T09:49:38;3.75;;;1.70;;
44558;SDS011;30270;40.238;18.256;2022-12-11T09:55:24;7.05;;;3.47;;
44558;SDS011;30270;40.238;18.256;2022-12-11T10:00:37;3.58;;;1.63;;
44558;SDS011;30270;40.238;18.256;2022-12-11T10:17:15;4.28;;;1.40;;
44558;SDS011;30270;40.238;18.256;2022-12-11T10:19:49;2.50;;;1.50;;
44558;SDS011;30270;40.238;18.256;2022-12-11T10:22:19;2.47;;;1.48;;
44558;SDS011;30270;40.238;18.256;2022-12-11T10:27:37;3.03;;;1.27;;
44558;SDS011;30270;40.238;18.256;2022-12-11T10:35:44;2.70;;;1.40;;
44558;SDS011;30270;40.238;18.256;2022-12-11T10:38:23;5.00;;;2.92;;
44558;SDS011;30270;40.238;18.256;2022-12-11T10:40:57;1.58;;;1.08;;
44558;SDS011;30270;40.238;18.256;2022-12-11T10:43:31;4.07;;;1.90;;
44558;SDS011;30270;40.238;18.256;2022-12-11T10:46:20;4.28;;;1.90;;
44558;SDS011;30270;40.238;18.256;2022-12-11T10:48:56;2.15;;;1.10;;
44558;SDS011;30270;40.238;18.256;2022-12-11T10:56:51;1.55;;;0.90;;
44558;SDS011;30270;40.238;18.256;2022-12-11T11:02:03;2.92;;;1.58;;
44558;SDS011;30270;40.238;18.256;2022-12-11T11:04:35;5.97;;;1.70;;
44558;SDS011;30270;40.238;18.256;2022-12-11T11:09:35;8.40;;;2.88;;
44558;SDS011;30270;40.238;18.256;2022-12-11T11:12:03;2.92;;;1.67;;
44558;SDS011;30270;40.238;18.256;2022-12-11T11:14:33;2.15;;;1.15;;
44558;SDS011;30270;40.238;18.256;2022-12-11T11:17:01;4.15;;;1.60;;
44558;SDS011;30270;40.238;18.256;2022-12-11T11:19:32;4.30;;;1.63;;
44558;SDS011;30270;40.238;18.256;2022-12-11T11:22:06;2.55;;;1.83;;
44558;SDS011;30270;40.238;18.256;2022-12-11T11:24:39;6.85;;;1.98;;
44558;SDS011;30270;40.238;18.256;2022-12-11T11:27:29;4.60;;;2.00;;
44558;SDS011;30270;40.238;18.256;2022-12-11T11:30:04;8.68;;;3.05;;
44558;SDS011;30270;40.238;18.256;2022-12-11T11:32:37;5.78;;;3.25;;
44558;SDS011;30270;40.238;18.256;2022-12-11T11:37:40;6.53;;;2.42;;
44558;SDS011;30270;40.238;18.256;2022-12-11T11:42:42;7.88;;;3.47;;
44558;SDS011;30270;40.238;18.256;2022-12-11T11:45:28;8.10;;;3.10;;
44558;SDS011;30270;40.238;18.256;2022-12-11T11:48:17;19.08;;;6.32;;
44558;SDS011;30270;40.238;18.256;2022-12-11T11:50:47;14.35;;;7.47;;
44558;SDS011;30270;40.238;18.256;2022-12-11T11:53:30;11.82;;;4.80;;
44558;SDS011;30270;40.238;18.256;2022-12-11T11:56:24;13.33;;;3.90;;
44558;SDS011;30270;40.238;18.256;2022-12-11T12:01:43;15.55;;;4.03;;
44558;SDS011;30270;40.238;18.256;2022-12-11T12:04:10;8.02;;;4.10;;
44558;SDS011;30270;40.238;18.256;2022-12-11T12:06:46;8.32;;;4.07;;
44558;SDS011;30270;40.238;18.256;2022-12-11T12:09:46;13.20;;;6.15;;
44558;SDS011;30270;40.238;18.256;2022-12-11T12:15:16;11.10;;;4.75;;
44558;SDS011;30270;40.238;18.256;2022-12-11T12:26:40;10.10;;;4.25;;
44558;SDS011;30270;40.238;18.256;2022-12-11T12:35:03;16.90;;;6.93;;
44558;SDS011;30270;40.238;18.256;2022-12-11T12:37:48;9.38;;;4.22;;
44558;SDS011;30270;40.238;18.256;2022-12-11T12:41:21;10.60;;;4.15;;
44558;SDS011;30270;40.238;18.256;2022-12-11T12:43:58;10.27;;;4.05;;
44558;SDS011;30270;40.238;18.256;2022-12-11T12:51:55;17.92;;;8.63;;
44558;SDS011;30270;40.238;18.256;2022-12-11T12:54:25;14.45;;;5.20;;
44558;SDS011;30270;40.238;18.256;2022-12-11T12:56:55;13.07;;;4.30;;
44558;SDS011;30270;40.238;18.256;2022-12-11T12:59:25;14.57;;;5.88;;
44558;SDS011;30270;40.238;18.256;2022-12-11T13:01:54;9.57;;;3.65;;
44558;SDS011;30270;40.238;18.256;2022-12-11T13:04:41;27.70;;;6.72;;
44558;SDS011;30270;40.238;18.256;2022-12-11T13:07:28;11.82;;;5.57;;
44558;SDS011;30270;40.238;18.256;2022-12-11T13:10:04;18.58;;;4.20;;
44558;SDS011;30270;40.238;18.256;2022-12-11T13:12:48;11.05;;;4.53;;
44558;SDS011;30270;40.238;18.256;2022-12-11T13:17:53;17.45;;;4.40;;
44558;SDS011;30270;40.238;18.256;2022-12-11T13:20:22;6.97;;;3.33;;
44558;SDS011;30270;40.238;18.256;2022-12-11T13:25:50;7.55;;;4.05;;
44558;SDS011;30270;40.238;18.256;2022-12-11T13:28:24;13.50;;;5.28;;
44558;SDS011;30270;40.238;18.256;2022-12-11T13:33:53;18.23;;;5.30;;
44558;SDS011;30270;40.238;18.256;2022-12-11T13:36:25;12.65;;;4.43;;
44558;SDS011;30270;40.238;18.256;2022-12-11T13:39:03;8.85;;;3.40;;
44558;SDS011;30270;40.238;18.256;2022-12-11T13:41:35;9.40;;;4.18;;
44558;SDS011;30270;40.238;18.256;2022-12-11T13:44:04;19.85;;;6.20;;
44558;SDS011;30270;40.238;18.256;2022-12-11T13:46:33;11.38;;;3.60;;
44558;SDS011;30270;40.238;18.256;2022-12-11T13:49:06;9.40;;;3.40;;
44558;SDS011;30270;40.238;18.256;2022-12-11T13:51:50;11.60;;;4.68;;
44558;SDS011;30270;40.238;18.256;2022-12-11T13:54:22;10.80;;;4.32;;
44558;SDS011;30270;40.238;18.256;2022-12-11T13:59:28;10.93;;;4.07;;
44558;SDS011;30270;40.238;18.256;2022-12-11T14:02:05;6.78;;;3.60;;
44558;SDS011;30270;40.238;18.256;2022-12-11T14:04:52;8.07;;;3.90;;
44558;SDS011;30270;40.238;18.256;2022-12-11T14:07:30;9.47;;;4.63;;
44558;SDS011;30270;40.238;18.256;2022-12-11T14:10:03;13.27;;;5.35;;
44558;SDS011;30270;40.238;18.256;2022-12-11T14:12:35;8.48;;;4.03;;
44558;SDS011;30270;40.238;18.256;2022-12-11T14:15:03;14.88;;;4.43;;
44558;SDS011;30270;40.238;18.256;2022-12-11T14:17:32;8.43;;;3.55;;
44558;SDS011;30270;40.238;18.256;2022-12-11T14:20:02;11.10;;;3.78;;
44558;SDS011;30270;40.238;18.256;2022-12-11T14:22:34;11.90;;;3.70;;
44558;SDS011;30270;40.238;18.256;2022-12-11T14:25:15;10.68;;;3.97;;
44558;SDS011;30270;40.238;18.256;2022-12-11T14:27:49;12.43;;;5.05;;
44558;SDS011;30270;40.238;18.256;2022-12-11T14:30:20;17.70;;;5.07;;
44558;SDS011;30270;40.238;18.256;2022-12-11T14:32:50;15.73;;;4.60;;
44558;SDS011;30270;40.238;18.256;2022-12-11T14:35:24;14.43;;;6.57;;
44558;SDS011;30270;40.238;18.256;2022-12-11T14:38:02;9.77;;;4.07;;
44558;SDS011;30270;40.238;18.256;2022-12-11T14:40:53;11.85;;;5.32;;
44558;SDS011;30270;40.238;18.256;2022-12-11T14:43:29;10.30;;;3.90;;
44558;SDS011;30270;40.238;18.256;2022-12-11T14:46:02;10.38;;;4.40;;
44558;SDS011;30270;40.238;18.256;2022-12-11T14:48:37;9.05;;;5.07;;
44558;SDS011;30270;40.238;18.256;2022-12-11T14:51:11;10.85;;;3.63;;
44558;SDS011;30270;40.238;18.256;2022-12-11T14:53:45;11.20;;;4.50;;
44558;SDS011;30270;40.238;18.256;2022-12-11T14:56:21;10.80;;;3.13;;
44558;SDS011;30270;40.238;18.256;2022-12-11T15:01:29;9.75;;;3.58;;
44558;SDS011;30270;40.238;18.256;2022-12-11T15:04:13;10.07;;;2.88;;
44558;SDS011;30270;40.238;18.256;2022-12-11T15:06:50;13.45;;;4.05;;
44558;SDS011;30270;40.238;18.256;2022-12-11T15:12:11;11.52;;;3.58;;
44558;SDS011;30270;40.238;18.256;2022-12-11T15:14:49;9.63;;;4.22;;
44558;SDS011;30270;40.238;18.256;2022-12-11T15:17:19;10.90;;;3.88;;
44558;SDS011;30270;40.238;18.256;2022-12-11T15:19:49;5.18;;;2.50;;
44558;SDS011;30270;40.238;18.256;2022-12-11T15:22:20;11.27;;;3.47;;
44558;SDS011;30270;40.238;18.256;2022-12-11T15:24:52;10.05;;;4.25;;
44558;SDS011;30270;40.238;18.256;2022-12-11T15:27:23;11.68;;;4.10;;
44558;SDS011;30270;40.238;18.256;2022-12-11T15:30:23;13.43;;;5.72;;
44558;SDS011;30270;40.238;18.256;2022-12-11T15:35:38;15.23;;;5.00;;
44558;SDS011;30270;40.238;18.256;2022-12-11T15:38:25;12.48;;;4.60;;
44558;SDS011;30270;40.238;18.256;2022-12-11T15:41:02;11.57;;;5.10;;
44558;SDS011;30270;40.238;18.256;2022-12-11T15:43:31;11.63;;;4.85;;
44558;SDS011;30270;40.238;18.256;2022-12-11T15:46:02;20.73;;;10.55;;
44558;SDS011;30270;40.238;18.256;2022-12-11T15:48:31;14.43;;;7.10;;
44558;SDS011;30270;40.238;18.256;2022-12-11T15:51:00;13.50;;;4.80;;
44558;SDS011;30270;40.238;18.256;2022-12-11T15:53:29;7.32;;;4.65;;
44558;SDS011;30270;40.238;18.256;2022-12-11T15:55:57;9.50;;;4.63;;
44558;SDS011;30270;40.238;18.256;2022-12-11T15:58:26;12.73;;;5.43;;
44558;SDS011;30270;40.238;18.256;2022-12-11T16:00:54;8.40;;;4.88;;
44558;SDS011;30270;40.238;18.256;2022-12-11T16:03:23;10.27;;;4.15;;
44558;SDS011;30270;40.238;18.256;2022-12-11T16:05:51;11.38;;;4.15;;
44558;SDS011;30270;40.238;18.256;2022-12-11T16:08:20;7.97;;;3.50;;
44558;SDS011;30270;40.238;18.256;2022-12-11T16:10:50;13.05;;;4.80;;
44558;SDS011;30270;40.238;18.256;2022-12-11T16:13:19;9.77;;;5.15;;
44558;SDS011;30270;40.238;18.256;2022-12-11T16:15:48;10.55;;;5.05;;
44558;SDS011;30270;40.238;18.256;2022-12-11T16:18:18;6.60;;;4.55;;
44558;SDS011;30270;40.238;18.256;2022-12-11T16:20:48;10.85;;;4.97;;
44558;SDS011;30270;40.238;18.256;2022-12-11T16:23:17;11.20;;;6.00;;
44558;SDS011;30270;40.238;18.256;2022-12-11T16:25:45;9.43;;;4.70;;
44558;SDS011;30270;40.238;18.256;2022-12-11T16:28:14;13.48;;;4.72;;
44558;SDS011;30270;40.238;18.256;2022-12-11T16:30:43;11.27;;;4.43;;
44558;SDS011;30270;40.238;18.256;2022-12-11T16:33:11;14.32;;;6.53;;